sensor_id;sensor_type;location;lat;lon;timestamp;P1;durP1;ratioP1;P2;durP2;ratioP2
75691;SDS011;64307;52.508;6.090;2022-12-10T00:01:42;50.70;;;18.17;;
75691;SDS011;64307;52.508;6.090;2022-12-10T00:04:08;50.38;;;18.98;;
75691;SDS011;64307;52.508;6.090;2022-12-10T00:06:35;47.63;;;17.00;;
75691;SDS011;64307;52.508;6.090;2022-12-10T00:09:02;45.40;;;18.17;;
75691;SDS011;64307;52.508;6.090;2022-12-10T00:11:30;44.33;;;17.70;;
75691;SDS011;64307;52.508;6.090;2022-12-10T00:13:56;44.75;;;18.20;;
75691;SDS011;64307;52.508;6.090;2022-12-10T00:16:23;44.22;;;18.17;;
75691;SDS011;64307;52.508;6.090;2022-12-10T00:18:50;46.42;;;18.45;;
75691;SDS011;64307;52.508;6.090;2022-12-10T00:21:17;48.30;;;19.73;;
75691;SDS011;64307;52.508;6.090;2022-12-10T00:23:44;46.50;;;17.73;;
75691;SDS011;64307;52.508;6.090;2022-12-10T00:26:13;47.25;;;18.50;;
75691;SDS011;64307;52.508;6.090;2022-12-10T00:28:43;45.58;;;19.23;;
75691;SDS011;64307;52.508;6.090;2022-12-10T00:31:10;49.70;;;19.17;;
75691;SDS011;64307;52.508;6.090;2022-12-10T00:33:38;46.85;;;19.30;;
75691;SDS011;64307;52.508;6.090;2022-12-10T00:36:04;42.60;;;17.35;;
75691;SDS011;64307;52.508;6.090;2022-12-10T00:38:34;45.78;;;17.75;;
75691;SDS011;64307;52.508;6.090;2022-12-10T00:41:00;45.55;;;20.08;;
75691;SDS011;64307;52.508;6.090;2022-12-10T00:43:26;87.10;;;40.77;;
75691;SDS011;64307;52.508;6.090;2022-12-10T00:45:52;178.77;;;109.50;;
75691;SDS011;64307;52.508;6.090;2022-12-10T00:48:18;136.73;;;76.78;;
75691;SDS011;64307;52.508;6.090;2022-12-10T00:50:43;151.13;;;63.95;;
75691;SDS011;64307;52.508;6.090;2022-12-10T00:53:08;122.43;;;46.20;;
75691;SDS011;64307;52.508;6.090;2022-12-10T00:55:33;118.00;;;42.20;;
75691;SDS011;64307;52.508;6.090;2022-12-10T00:57:59;77.97;;;30.53;;
75691;SDS011;64307;52.508;6.090;2022-12-10T01:00:24;58.83;;;25.20;;
75691;SDS011;64307;52.508;6.090;2022-12-10T01:02:49;48.58;;;18.65;;
75691;SDS011;64307;52.508;6.090;2022-12-10T01:05:15;49.92;;;18.50;;
75691;SDS011;64307;52.508;6.090;2022-12-10T01:07:40;48.08;;;18.17;;
75691;SDS011;64307;52.508;6.090;2022-12-10T01:10:06;55.33;;;20.48;;
75691;SDS011;64307;52.508;6.090;2022-12-10T01:12:31;55.42;;;21.27;;
75691;SDS011;64307;52.508;6.090;2022-12-10T01:14:56;48.63;;;18.48;;
75691;SDS011;64307;52.508;6.090;2022-12-10T01:17:22;47.40;;;17.23;;
75691;SDS011;64307;52.508;6.090;2022-12-10T01:19:47;44.57;;;17.17;;
75691;SDS011;64307;52.508;6.090;2022-12-10T01:22:12;44.25;;;17.98;;
75691;SDS011;64307;52.508;6.090;2022-12-10T01:24:38;47.28;;;18.30;;
75691;SDS011;64307;52.508;6.090;2022-12-10T01:27:03;45.55;;;17.65;;
75691;SDS011;64307;52.508;6.090;2022-12-10T01:29:29;45.80;;;18.52;;
75691;SDS011;64307;52.508;6.090;2022-12-10T01:31:55;42.72;;;17.55;;
75691;SDS011;64307;52.508;6.090;2022-12-10T01:34:21;43.65;;;17.13;;
75691;SDS011;64307;52.508;6.090;2022-12-10T01:36:49;43.95;;;16.83;;
75691;SDS011;64307;52.508;6.090;2022-12-10T01:39:18;49.47;;;15.88;;
75691;SDS011;64307;52.508;6.090;2022-12-10T01:41:49;46.35;;;18.73;;
75691;SDS011;64307;52.508;6.090;2022-12-10T01:46:46;49.93;;;17.80;;
75691;SDS011;64307;52.508;6.090;2022-12-10T01:49:14;46.35;;;17.05;;
75691;SDS011;64307;52.508;6.090;2022-12-10T01:51:42;48.58;;;18.52;;
75691;SDS011;64307;52.508;6.090;2022-12-10T01:54:11;40.80;;;16.48;;
75691;SDS011;64307;52.508;6.090;2022-12-10T01:56:40;43.28;;;15.70;;
75691;SDS011;64307;52.508;6.090;2022-12-10T01:59:08;44.58;;;17.52;;
75691;SDS011;64307;52.508;6.090;2022-12-10T02:01:50;44.78;;;15.40;;
75691;SDS011;64307;52.508;6.090;2022-12-10T02:09:50;44.30;;;16.92;;
75691;SDS011;64307;52.508;6.090;2022-12-10T02:12:33;46.05;;;17.25;;
75691;SDS011;64307;52.508;6.090;2022-12-10T02:15:15;46.75;;;18.80;;
75691;SDS011;64307;52.508;6.090;2022-12-10T02:17:51;44.33;;;17.10;;
75691;SDS011;64307;52.508;6.090;2022-12-10T02:20:24;51.38;;;16.42;;
75691;SDS011;64307;52.508;6.090;2022-12-10T02:31:29;50.88;;;16.77;;
75691;SDS011;64307;52.508;6.090;2022-12-10T02:33:57;46.80;;;17.92;;
75691;SDS011;64307;52.508;6.090;2022-12-10T02:36:25;54.80;;;18.33;;
75691;SDS011;64307;52.508;6.090;2022-12-10T02:38:53;48.38;;;19.38;;
75691;SDS011;64307;52.508;6.090;2022-12-10T02:41:23;42.03;;;15.63;;
75691;SDS011;64307;52.508;6.090;2022-12-10T02:44:02;42.63;;;15.10;;
75691;SDS011;64307;52.508;6.090;2022-12-10T02:46:30;52.92;;;18.20;;
75691;SDS011;64307;52.508;6.090;2022-12-10T02:48:57;53.67;;;21.45;;
75691;SDS011;64307;52.508;6.090;2022-12-10T02:51:24;47.78;;;17.88;;
75691;SDS011;64307;52.508;6.090;2022-12-10T02:53:59;43.55;;;16.40;;
75691;SDS011;64307;52.508;6.090;2022-12-10T02:56:33;46.92;;;15.27;;
75691;SDS011;64307;52.508;6.090;2022-12-10T02:59:07;43.28;;;15.63;;
75691;SDS011;64307;52.508;6.090;2022-12-10T03:04:16;48.67;;;17.23;;
75691;SDS011;64307;52.508;6.090;2022-12-10T03:06:50;47.25;;;18.60;;
75691;SDS011;64307;52.508;6.090;2022-12-10T03:12:17;46.50;;;16.40;;
75691;SDS011;64307;52.508;6.090;2022-12-10T03:14:47;42.95;;;16.42;;
75691;SDS011;64307;52.508;6.090;2022-12-10T03:17:12;43.72;;;16.35;;
75691;SDS011;64307;52.508;6.090;2022-12-10T03:19:40;43.75;;;16.02;;
75691;SDS011;64307;52.508;6.090;2022-12-10T03:22:09;47.08;;;16.70;;
75691;SDS011;64307;52.508;6.090;2022-12-10T03:24:38;45.50;;;16.90;;
75691;SDS011;64307;52.508;6.090;2022-12-10T03:27:06;44.67;;;16.35;;
75691;SDS011;64307;52.508;6.090;2022-12-10T03:29:38;46.25;;;16.90;;
75691;SDS011;64307;52.508;6.090;2022-12-10T03:32:07;44.95;;;17.17;;
75691;SDS011;64307;52.508;6.090;2022-12-10T03:34:33;48.03;;;17.70;;
75691;SDS011;64307;52.508;6.090;2022-12-10T03:41:51;42.10;;;15.02;;
75691;SDS011;64307;52.508;6.090;2022-12-10T03:44:26;45.00;;;15.80;;
75691;SDS011;64307;52.508;6.090;2022-12-10T03:46:55;43.00;;;15.00;;
75691;SDS011;64307;52.508;6.090;2022-12-10T03:49:20;39.80;;;14.93;;
75691;SDS011;64307;52.508;6.090;2022-12-10T03:51:46;46.13;;;16.53;;
75691;SDS011;64307;52.508;6.090;2022-12-10T03:54:11;43.73;;;15.67;;
75691;SDS011;64307;52.508;6.090;2022-12-10T03:56:36;42.45;;;15.75;;
75691;SDS011;64307;52.508;6.090;2022-12-10T03:59:02;43.05;;;16.95;;
75691;SDS011;64307;52.508;6.090;2022-12-10T04:01:27;47.13;;;16.67;;
75691;SDS011;64307;52.508;6.090;2022-12-10T04:03:52;49.38;;;17.30;;
75691;SDS011;64307;52.508;6.090;2022-12-10T04:06:18;45.70;;;16.87;;
75691;SDS011;64307;52.508;6.090;2022-12-10T04:08:44;47.55;;;16.60;;
75691;SDS011;64307;52.508;6.090;2022-12-10T04:11:11;45.85;;;16.52;;
75691;SDS011;64307;52.508;6.090;2022-12-10T04:13:38;41.90;;;15.70;;
75691;SDS011;64307;52.508;6.090;2022-12-10T04:16:23;41.33;;;16.00;;
75691;SDS011;64307;52.508;6.090;2022-12-10T04:18:51;43.95;;;17.55;;
75691;SDS011;64307;52.508;6.090;2022-12-10T04:21:17;37.80;;;14.05;;
75691;SDS011;64307;52.508;6.090;2022-12-10T04:24:01;44.92;;;16.92;;
75691;SDS011;64307;52.508;6.090;2022-12-10T04:26:45;38.97;;;16.20;;
75691;SDS011;64307;52.508;6.090;2022-12-10T04:29:17;45.45;;;17.25;;
75691;SDS011;64307;52.508;6.090;2022-12-10T04:31:43;42.40;;;16.55;;
75691;SDS011;64307;52.508;6.090;2022-12-10T04:34:09;46.25;;;17.67;;
75691;SDS011;64307;52.508;6.090;2022-12-10T04:36:34;44.03;;;16.60;;
75691;SDS011;64307;52.508;6.090;2022-12-10T04:38:59;45.57;;;17.47;;
75691;SDS011;64307;52.508;6.090;2022-12-10T04:41:25;51.97;;;18.17;;
75691;SDS011;64307;52.508;6.090;2022-12-10T04:43:51;53.45;;;19.70;;
75691;SDS011;64307;52.508;6.090;2022-12-10T04:46:17;52.13;;;18.17;;
75691;SDS011;64307;52.508;6.090;2022-12-10T04:48:43;53.80;;;19.02;;
75691;SDS011;64307;52.508;6.090;2022-12-10T04:51:08;47.70;;;18.37;;
75691;SDS011;64307;52.508;6.090;2022-12-10T04:53:33;44.10;;;17.30;;
75691;SDS011;64307;52.508;6.090;2022-12-10T04:55:58;47.97;;;18.05;;
75691;SDS011;64307;52.508;6.090;2022-12-10T04:58:25;54.90;;;17.88;;
75691;SDS011;64307;52.508;6.090;2022-12-10T05:01:00;49.78;;;18.02;;
75691;SDS011;64307;52.508;6.090;2022-12-10T05:03:26;52.33;;;18.00;;
75691;SDS011;64307;52.508;6.090;2022-12-10T05:05:52;54.30;;;18.35;;
75691;SDS011;64307;52.508;6.090;2022-12-10T05:08:17;53.40;;;17.87;;
75691;SDS011;64307;52.508;6.090;2022-12-10T05:10:42;52.27;;;17.57;;
75691;SDS011;64307;52.508;6.090;2022-12-10T05:13:07;46.97;;;16.83;;
75691;SDS011;64307;52.508;6.090;2022-12-10T05:15:33;42.63;;;16.40;;
75691;SDS011;64307;52.508;6.090;2022-12-10T05:18:02;46.80;;;16.05;;
75691;SDS011;64307;52.508;6.090;2022-12-10T05:20:28;51.77;;;16.47;;
75691;SDS011;64307;52.508;6.090;2022-12-10T05:22:53;45.67;;;16.65;;
75691;SDS011;64307;52.508;6.090;2022-12-10T05:25:37;43.88;;;14.82;;
75691;SDS011;64307;52.508;6.090;2022-12-10T05:28:17;39.53;;;14.85;;
75691;SDS011;64307;52.508;6.090;2022-12-10T05:30:46;42.92;;;15.68;;
75691;SDS011;64307;52.508;6.090;2022-12-10T05:33:11;49.28;;;16.98;;
75691;SDS011;64307;52.508;6.090;2022-12-10T05:35:36;50.13;;;17.10;;
75691;SDS011;64307;52.508;6.090;2022-12-10T05:38:02;46.63;;;17.20;;
75691;SDS011;64307;52.508;6.090;2022-12-10T05:40:27;53.17;;;16.17;;
75691;SDS011;64307;52.508;6.090;2022-12-10T05:42:52;48.28;;;16.88;;
75691;SDS011;64307;52.508;6.090;2022-12-10T05:45:17;50.93;;;16.60;;
75691;SDS011;64307;52.508;6.090;2022-12-10T05:47:43;55.45;;;16.35;;
75691;SDS011;64307;52.508;6.090;2022-12-10T05:50:08;61.80;;;16.20;;
75691;SDS011;64307;52.508;6.090;2022-12-10T05:52:33;51.28;;;16.13;;
75691;SDS011;64307;52.508;6.090;2022-12-10T05:54:59;49.45;;;18.35;;
75691;SDS011;64307;52.508;6.090;2022-12-10T05:57:24;53.40;;;16.93;;
75691;SDS011;64307;52.508;6.090;2022-12-10T05:59:49;53.00;;;18.13;;
75691;SDS011;64307;52.508;6.090;2022-12-10T06:02:14;54.03;;;16.40;;
75691;SDS011;64307;52.508;6.090;2022-12-10T06:04:39;55.57;;;15.80;;
75691;SDS011;64307;52.508;6.090;2022-12-10T06:07:05;56.60;;;16.03;;
75691;SDS011;64307;52.508;6.090;2022-12-10T06:09:30;45.13;;;16.00;;
75691;SDS011;64307;52.508;6.090;2022-12-10T06:11:55;68.70;;;18.15;;
75691;SDS011;64307;52.508;6.090;2022-12-10T06:14:21;46.03;;;15.50;;
75691;SDS011;64307;52.508;6.090;2022-12-10T06:16:46;51.22;;;16.27;;
75691;SDS011;64307;52.508;6.090;2022-12-10T06:19:11;86.22;;;16.38;;
75691;SDS011;64307;52.508;6.090;2022-12-10T06:21:37;56.40;;;17.33;;
75691;SDS011;64307;52.508;6.090;2022-12-10T06:24:02;53.47;;;16.48;;
75691;SDS011;64307;52.508;6.090;2022-12-10T06:26:28;94.78;;;18.48;;
75691;SDS011;64307;52.508;6.090;2022-12-10T06:28:53;47.08;;;16.35;;
75691;SDS011;64307;52.508;6.090;2022-12-10T06:31:19;47.00;;;15.15;;
75691;SDS011;64307;52.508;6.090;2022-12-10T06:33:46;51.92;;;15.50;;
75691;SDS011;64307;52.508;6.090;2022-12-10T06:36:12;50.25;;;15.95;;
75691;SDS011;64307;52.508;6.090;2022-12-10T06:38:40;48.30;;;17.05;;
75691;SDS011;64307;52.508;6.090;2022-12-10T06:41:09;44.25;;;15.02;;
75691;SDS011;64307;52.508;6.090;2022-12-10T06:43:37;46.80;;;14.88;;
75691;SDS011;64307;52.508;6.090;2022-12-10T06:46:04;48.67;;;14.98;;
75691;SDS011;64307;52.508;6.090;2022-12-10T06:48:31;45.00;;;16.60;;
75691;SDS011;64307;52.508;6.090;2022-12-10T06:50:56;49.58;;;15.63;;
75691;SDS011;64307;52.508;6.090;2022-12-10T06:53:21;45.50;;;15.48;;
75691;SDS011;64307;52.508;6.090;2022-12-10T06:55:47;42.77;;;14.83;;
75691;SDS011;64307;52.508;6.090;2022-12-10T06:58:12;99.10;;;16.20;;
75691;SDS011;64307;52.508;6.090;2022-12-10T07:00:37;72.75;;;16.95;;
75691;SDS011;64307;52.508;6.090;2022-12-10T07:03:02;41.00;;;14.10;;
75691;SDS011;64307;52.508;6.090;2022-12-10T07:05:28;48.97;;;14.55;;
75691;SDS011;64307;52.508;6.090;2022-12-10T07:07:53;52.13;;;15.70;;
75691;SDS011;64307;52.508;6.090;2022-12-10T07:10:18;44.95;;;15.07;;
75691;SDS011;64307;52.508;6.090;2022-12-10T07:12:43;55.33;;;17.27;;
75691;SDS011;64307;52.508;6.090;2022-12-10T07:15:09;47.80;;;16.37;;
75691;SDS011;64307;52.508;6.090;2022-12-10T07:17:34;44.50;;;15.35;;
75691;SDS011;64307;52.508;6.090;2022-12-10T07:20:00;39.95;;;15.02;;
75691;SDS011;64307;52.508;6.090;2022-12-10T07:22:25;58.83;;;15.13;;
75691;SDS011;64307;52.508;6.090;2022-12-10T07:24:50;54.43;;;13.90;;
75691;SDS011;64307;52.508;6.090;2022-12-10T07:27:15;52.10;;;16.10;;
75691;SDS011;64307;52.508;6.090;2022-12-10T07:29:41;40.92;;;13.80;;
75691;SDS011;64307;52.508;6.090;2022-12-10T07:32:06;48.58;;;15.10;;
75691;SDS011;64307;52.508;6.090;2022-12-10T07:34:32;37.13;;;14.85;;
75691;SDS011;64307;52.508;6.090;2022-12-10T07:36:57;35.75;;;12.95;;
75691;SDS011;64307;52.508;6.090;2022-12-10T07:39:22;51.20;;;14.05;;
75691;SDS011;64307;52.508;6.090;2022-12-10T07:41:48;52.63;;;14.07;;
75691;SDS011;64307;52.508;6.090;2022-12-10T07:44:16;39.25;;;14.75;;
75691;SDS011;64307;52.508;6.090;2022-12-10T07:46:41;43.40;;;15.55;;
75691;SDS011;64307;52.508;6.090;2022-12-10T07:49:06;67.65;;;18.25;;
75691;SDS011;64307;52.508;6.090;2022-12-10T07:51:33;45.53;;;15.15;;
75691;SDS011;64307;52.508;6.090;2022-12-10T07:53:58;38.15;;;13.50;;
75691;SDS011;64307;52.508;6.090;2022-12-10T07:56:24;45.40;;;14.75;;
75691;SDS011;64307;52.508;6.090;2022-12-10T07:58:50;39.55;;;14.57;;
75691;SDS011;64307;52.508;6.090;2022-12-10T08:01:17;38.33;;;13.57;;
75691;SDS011;64307;52.508;6.090;2022-12-10T08:03:46;44.03;;;14.85;;
75691;SDS011;64307;52.508;6.090;2022-12-10T08:06:12;42.47;;;15.40;;
75691;SDS011;64307;52.508;6.090;2022-12-10T08:08:40;46.22;;;15.75;;
75691;SDS011;64307;52.508;6.090;2022-12-10T08:13:33;37.03;;;14.25;;
75691;SDS011;64307;52.508;6.090;2022-12-10T08:16:00;45.08;;;15.93;;
75691;SDS011;64307;52.508;6.090;2022-12-10T08:18:27;43.53;;;14.57;;
75691;SDS011;64307;52.508;6.090;2022-12-10T08:20:53;46.47;;;18.13;;
75691;SDS011;64307;52.508;6.090;2022-12-10T08:23:18;41.73;;;15.57;;
75691;SDS011;64307;52.508;6.090;2022-12-10T08:25:43;45.47;;;15.07;;
75691;SDS011;64307;52.508;6.090;2022-12-10T08:28:09;36.92;;;14.50;;
75691;SDS011;64307;52.508;6.090;2022-12-10T08:30:34;40.90;;;14.70;;
75691;SDS011;64307;52.508;6.090;2022-12-10T08:33:00;39.10;;;13.02;;
75691;SDS011;64307;52.508;6.090;2022-12-10T08:35:25;38.63;;;13.52;;
75691;SDS011;64307;52.508;6.090;2022-12-10T08:37:50;41.80;;;15.13;;
75691;SDS011;64307;52.508;6.090;2022-12-10T08:40:16;40.78;;;15.65;;
75691;SDS011;64307;52.508;6.090;2022-12-10T08:42:41;40.38;;;15.00;;
75691;SDS011;64307;52.508;6.090;2022-12-10T08:45:06;39.10;;;13.48;;
75691;SDS011;64307;52.508;6.090;2022-12-10T08:47:32;40.00;;;15.35;;
75691;SDS011;64307;52.508;6.090;2022-12-10T08:49:58;39.72;;;14.95;;
75691;SDS011;64307;52.508;6.090;2022-12-10T08:52:23;47.90;;;18.63;;
75691;SDS011;64307;52.508;6.090;2022-12-10T08:54:48;43.22;;;15.30;;
75691;SDS011;64307;52.508;6.090;2022-12-10T08:57:14;45.13;;;16.13;;
75691;SDS011;64307;52.508;6.090;2022-12-10T08:59:39;42.42;;;15.93;;
75691;SDS011;64307;52.508;6.090;2022-12-10T09:02:04;39.90;;;13.43;;
75691;SDS011;64307;52.508;6.090;2022-12-10T09:04:30;45.60;;;17.52;;
75691;SDS011;64307;52.508;6.090;2022-12-10T09:06:55;39.80;;;14.13;;
75691;SDS011;64307;52.508;6.090;2022-12-10T09:09:20;46.85;;;15.40;;
75691;SDS011;64307;52.508;6.090;2022-12-10T09:11:45;44.88;;;15.48;;
75691;SDS011;64307;52.508;6.090;2022-12-10T09:14:11;43.38;;;12.50;;
75691;SDS011;64307;52.508;6.090;2022-12-10T09:16:37;39.85;;;14.48;;
75691;SDS011;64307;52.508;6.090;2022-12-10T09:19:06;45.90;;;15.32;;
75691;SDS011;64307;52.508;6.090;2022-12-10T09:21:32;44.28;;;15.02;;
75691;SDS011;64307;52.508;6.090;2022-12-10T09:23:58;43.75;;;15.43;;
75691;SDS011;64307;52.508;6.090;2022-12-10T09:26:24;42.35;;;15.32;;
75691;SDS011;64307;52.508;6.090;2022-12-10T09:28:50;45.85;;;15.52;;
75691;SDS011;64307;52.508;6.090;2022-12-10T09:31:16;48.03;;;15.40;;
75691;SDS011;64307;52.508;6.090;2022-12-10T09:33:43;43.53;;;16.48;;
75691;SDS011;64307;52.508;6.090;2022-12-10T09:36:09;48.30;;;17.70;;
75691;SDS011;64307;52.508;6.090;2022-12-10T09:38:39;53.35;;;18.48;;
75691;SDS011;64307;52.508;6.090;2022-12-10T09:46:08;48.80;;;17.53;;
75691;SDS011;64307;52.508;6.090;2022-12-10T09:49:01;45.05;;;15.98;;
75691;SDS011;64307;52.508;6.090;2022-12-10T09:51:29;54.80;;;16.17;;
75691;SDS011;64307;52.508;6.090;2022-12-10T09:53:57;46.30;;;15.93;;
75691;SDS011;64307;52.508;6.090;2022-12-10T09:56:35;46.35;;;15.27;;
75691;SDS011;64307;52.508;6.090;2022-12-10T09:59:13;50.13;;;17.08;;
75691;SDS011;64307;52.508;6.090;2022-12-10T10:01:44;49.85;;;17.48;;
75691;SDS011;64307;52.508;6.090;2022-12-10T10:04:11;47.42;;;16.23;;
75691;SDS011;64307;52.508;6.090;2022-12-10T10:06:37;46.75;;;16.75;;
75691;SDS011;64307;52.508;6.090;2022-12-10T10:09:02;48.47;;;16.48;;
75691;SDS011;64307;52.508;6.090;2022-12-10T10:11:32;47.88;;;16.85;;
75691;SDS011;64307;52.508;6.090;2022-12-10T10:14:04;49.17;;;17.08;;
75691;SDS011;64307;52.508;6.090;2022-12-10T10:16:35;50.80;;;17.40;;
75691;SDS011;64307;52.508;6.090;2022-12-10T10:19:03;50.75;;;17.60;;
75691;SDS011;64307;52.508;6.090;2022-12-10T10:21:41;49.72;;;18.38;;
75691;SDS011;64307;52.508;6.090;2022-12-10T10:24:13;50.05;;;17.05;;
75691;SDS011;64307;52.508;6.090;2022-12-10T10:26:41;51.78;;;16.92;;
75691;SDS011;64307;52.508;6.090;2022-12-10T10:29:08;46.47;;;16.27;;
75691;SDS011;64307;52.508;6.090;2022-12-10T10:31:38;47.28;;;16.63;;
75691;SDS011;64307;52.508;6.090;2022-12-10T10:34:06;45.15;;;17.40;;
75691;SDS011;64307;52.508;6.090;2022-12-10T10:36:47;46.28;;;15.75;;
75691;SDS011;64307;52.508;6.090;2022-12-10T10:39:29;45.58;;;15.70;;
75691;SDS011;64307;52.508;6.090;2022-12-10T10:41:57;48.05;;;17.17;;
75691;SDS011;64307;52.508;6.090;2022-12-10T10:44:25;44.90;;;16.25;;
75691;SDS011;64307;52.508;6.090;2022-12-10T10:46:53;43.03;;;14.80;;
75691;SDS011;64307;52.508;6.090;2022-12-10T10:49:27;44.55;;;15.63;;
75691;SDS011;64307;52.508;6.090;2022-12-10T10:52:12;47.08;;;15.80;;
75691;SDS011;64307;52.508;6.090;2022-12-10T10:54:41;47.00;;;16.17;;
75691;SDS011;64307;52.508;6.090;2022-12-10T10:57:12;47.70;;;16.67;;
75691;SDS011;64307;52.508;6.090;2022-12-10T10:59:37;44.58;;;13.82;;
75691;SDS011;64307;52.508;6.090;2022-12-10T11:04:48;47.10;;;16.35;;
75691;SDS011;64307;52.508;6.090;2022-12-10T11:07:25;39.97;;;13.88;;
75691;SDS011;64307;52.508;6.090;2022-12-10T11:10:03;44.42;;;15.57;;
75691;SDS011;64307;52.508;6.090;2022-12-10T11:17:48;44.97;;;14.93;;
75691;SDS011;64307;52.508;6.090;2022-12-10T11:20:29;40.50;;;14.15;;
75691;SDS011;64307;52.508;6.090;2022-12-10T11:22:57;44.72;;;15.35;;
75691;SDS011;64307;52.508;6.090;2022-12-10T11:28:33;41.58;;;13.98;;
75691;SDS011;64307;52.508;6.090;2022-12-10T11:33:55;49.22;;;15.07;;
75691;SDS011;64307;52.508;6.090;2022-12-10T11:39:44;49.55;;;15.75;;
75691;SDS011;64307;52.508;6.090;2022-12-10T11:45:15;48.47;;;15.05;;
75691;SDS011;64307;52.508;6.090;2022-12-10T11:50:46;41.80;;;14.40;;
75691;SDS011;64307;52.508;6.090;2022-12-10T11:59:12;55.90;;;16.70;;
75691;SDS011;64307;52.508;6.090;2022-12-10T12:04:30;53.47;;;17.23;;
75691;SDS011;64307;52.508;6.090;2022-12-10T12:09:46;61.13;;;19.60;;
75691;SDS011;64307;52.508;6.090;2022-12-10T12:12:41;51.65;;;17.77;;
75691;SDS011;64307;52.508;6.090;2022-12-10T12:17:46;54.15;;;16.80;;
75691;SDS011;64307;52.508;6.090;2022-12-10T12:22:54;53.25;;;17.52;;
75691;SDS011;64307;52.508;6.090;2022-12-10T12:25:26;50.63;;;17.02;;
75691;SDS011;64307;52.508;6.090;2022-12-10T12:30:33;52.35;;;17.27;;
75691;SDS011;64307;52.508;6.090;2022-12-10T12:33:02;47.22;;;16.45;;
75691;SDS011;64307;52.508;6.090;2022-12-10T12:35:42;50.88;;;16.77;;
75691;SDS011;64307;52.508;6.090;2022-12-10T12:43:44;46.47;;;15.70;;
75691;SDS011;64307;52.508;6.090;2022-12-10T12:49:13;48.30;;;15.43;;
75691;SDS011;64307;52.508;6.090;2022-12-10T12:51:50;51.88;;;16.30;;
75691;SDS011;64307;52.508;6.090;2022-12-10T12:54:19;47.83;;;15.27;;
75691;SDS011;64307;52.508;6.090;2022-12-10T12:56:53;41.20;;;15.07;;
75691;SDS011;64307;52.508;6.090;2022-12-10T12:59:33;46.72;;;16.45;;
75691;SDS011;64307;52.508;6.090;2022-12-10T13:02:18;54.10;;;18.23;;
75691;SDS011;64307;52.508;6.090;2022-12-10T13:04:51;46.28;;;15.30;;
75691;SDS011;64307;52.508;6.090;2022-12-10T13:09:46;45.63;;;14.90;;
75691;SDS011;64307;52.508;6.090;2022-12-10T13:15:32;42.17;;;13.90;;
75691;SDS011;64307;52.508;6.090;2022-12-10T13:18:19;42.75;;;15.70;;
75691;SDS011;64307;52.508;6.090;2022-12-10T13:20:55;48.10;;;15.60;;
75691;SDS011;64307;52.508;6.090;2022-12-10T13:24:21;44.80;;;15.35;;
75691;SDS011;64307;52.508;6.090;2022-12-10T13:26:32;41.03;;;15.13;;
75691;SDS011;64307;52.508;6.090;2022-12-10T13:29:22;43.75;;;14.93;;
75691;SDS011;64307;52.508;6.090;2022-12-10T13:45:00;39.00;;;14.05;;
75691;SDS011;64307;52.508;6.090;2022-12-10T13:50:00;42.22;;;14.18;;
75691;SDS011;64307;52.508;6.090;2022-12-10T14:00:17;39.28;;;14.07;;
75691;SDS011;64307;52.508;6.090;2022-12-10T14:08:16;36.45;;;12.63;;
75691;SDS011;64307;52.508;6.090;2022-12-10T14:10:44;32.70;;;11.90;;
75691;SDS011;64307;52.508;6.090;2022-12-10T14:13:11;35.95;;;12.75;;
75691;SDS011;64307;52.508;6.090;2022-12-10T14:15:40;33.17;;;11.27;;
75691;SDS011;64307;52.508;6.090;2022-12-10T14:18:12;35.75;;;12.00;;
75691;SDS011;64307;52.508;6.090;2022-12-10T14:20:47;32.58;;;11.90;;
75691;SDS011;64307;52.508;6.090;2022-12-10T14:23:26;35.80;;;12.35;;
75691;SDS011;64307;52.508;6.090;2022-12-10T14:26:20;31.85;;;11.20;;
75691;SDS011;64307;52.508;6.090;2022-12-10T14:28:47;32.17;;;10.55;;
75691;SDS011;64307;52.508;6.090;2022-12-10T14:31:21;33.70;;;11.73;;
75691;SDS011;64307;52.508;6.090;2022-12-10T14:33:53;45.10;;;15.48;;
75691;SDS011;64307;52.508;6.090;2022-12-10T14:36:28;36.47;;;12.35;;
75691;SDS011;64307;52.508;6.090;2022-12-10T14:38:55;34.10;;;11.77;;
75691;SDS011;64307;52.508;6.090;2022-12-10T14:41:22;35.00;;;11.88;;
75691;SDS011;64307;52.508;6.090;2022-12-10T14:43:49;34.33;;;12.18;;
75691;SDS011;64307;52.508;6.090;2022-12-10T14:48:48;31.23;;;10.73;;
75691;SDS011;64307;52.508;6.090;2022-12-10T14:51:16;37.33;;;12.82;;
75691;SDS011;64307;52.508;6.090;2022-12-10T14:53:44;34.95;;;11.82;;
75691;SDS011;64307;52.508;6.090;2022-12-10T14:56:13;33.85;;;11.75;;
75691;SDS011;64307;52.508;6.090;2022-12-10T14:59:07;37.20;;;11.57;;
75691;SDS011;64307;52.508;6.090;2022-12-10T15:01:36;37.20;;;13.43;;
75691;SDS011;64307;52.508;6.090;2022-12-10T15:04:06;32.47;;;12.23;;
75691;SDS011;64307;52.508;6.090;2022-12-10T15:06:37;36.58;;;12.05;;
75691;SDS011;64307;52.508;6.090;2022-12-10T15:09:02;32.03;;;11.55;;
75691;SDS011;64307;52.508;6.090;2022-12-10T15:11:30;35.00;;;11.50;;
75691;SDS011;64307;52.508;6.090;2022-12-10T15:13:57;38.35;;;12.38;;
75691;SDS011;64307;52.508;6.090;2022-12-10T15:22:27;29.50;;;10.65;;
75691;SDS011;64307;52.508;6.090;2022-12-10T15:24:46;34.13;;;10.95;;
75691;SDS011;64307;52.508;6.090;2022-12-10T15:27:16;45.20;;;12.55;;
75691;SDS011;64307;52.508;6.090;2022-12-10T15:29:43;38.33;;;12.80;;
75691;SDS011;64307;52.508;6.090;2022-12-10T15:32:22;34.25;;;12.25;;
75691;SDS011;64307;52.508;6.090;2022-12-10T15:34:58;42.30;;;12.40;;
75691;SDS011;64307;52.508;6.090;2022-12-10T15:37:26;38.70;;;15.23;;
75691;SDS011;64307;52.508;6.090;2022-12-10T15:39:57;54.78;;;11.52;;
75691;SDS011;64307;52.508;6.090;2022-12-10T15:42:46;35.15;;;11.82;;
75691;SDS011;64307;52.508;6.090;2022-12-10T15:47:47;32.97;;;11.90;;
75691;SDS011;64307;52.508;6.090;2022-12-10T15:50:13;35.60;;;12.77;;
75691;SDS011;64307;52.508;6.090;2022-12-10T15:52:39;36.42;;;13.05;;
75691;SDS011;64307;52.508;6.090;2022-12-10T15:55:05;33.42;;;11.88;;
75691;SDS011;64307;52.508;6.090;2022-12-10T16:00:04;27.08;;;10.10;;
75691;SDS011;64307;52.508;6.090;2022-12-10T16:05:15;29.70;;;10.88;;
75691;SDS011;64307;52.508;6.090;2022-12-10T16:07:44;30.30;;;11.52;;
75691;SDS011;64307;52.508;6.090;2022-12-10T16:10:12;34.20;;;10.95;;
75691;SDS011;64307;52.508;6.090;2022-12-10T16:12:39;29.15;;;11.05;;
75691;SDS011;64307;52.508;6.090;2022-12-10T16:15:07;30.70;;;10.98;;
75691;SDS011;64307;52.508;6.090;2022-12-10T16:17:40;30.90;;;10.30;;
75691;SDS011;64307;52.508;6.090;2022-12-10T16:22:46;25.17;;;9.70;;
75691;SDS011;64307;52.508;6.090;2022-12-10T16:25:12;33.90;;;10.65;;
75691;SDS011;64307;52.508;6.090;2022-12-10T16:27:37;29.50;;;10.90;;
75691;SDS011;64307;52.508;6.090;2022-12-10T16:32:41;28.83;;;9.65;;
75691;SDS011;64307;52.508;6.090;2022-12-10T16:35:07;26.25;;;9.25;;
75691;SDS011;64307;52.508;6.090;2022-12-10T16:37:32;26.90;;;9.93;;
75691;SDS011;64307;52.508;6.090;2022-12-10T16:39:58;32.35;;;10.38;;
75691;SDS011;64307;52.508;6.090;2022-12-10T16:42:23;26.27;;;9.40;;
75691;SDS011;64307;52.508;6.090;2022-12-10T16:44:48;31.73;;;10.20;;
75691;SDS011;64307;52.508;6.090;2022-12-10T16:47:14;27.07;;;8.87;;
75691;SDS011;64307;52.508;6.090;2022-12-10T16:49:40;27.75;;;9.43;;
75691;SDS011;64307;52.508;6.090;2022-12-10T16:52:05;30.77;;;10.07;;